createdAt,value
2023-11-10T00:03:42.418Z,2.00
2023-11-10T00:08:44.323Z,2.27
2023-11-10T00:13:48.507Z,2.30
2023-11-10T00:18:50.536Z,2.53
2023-11-10T00:23:55.091Z,2.53
2023-11-10T00:28:59.015Z,2.77
2023-11-10T00:34:00.892Z,3.30
2023-11-10T00:39:02.846Z,3.60
2023-11-10T00:44:08.162Z,3.70
2023-11-10T00:49:10.994Z,4.13
2023-11-10T00:54:13.326Z,4.53
2023-11-10T00:59:15.426Z,4.77
2023-11-10T01:04:17.303Z,5.47
2023-11-10T01:09:19.730Z,5.57
2023-11-10T01:14:24.862Z,6.57
2023-11-10T01:19:26.641Z,6.97
2023-11-10T01:24:29.327Z,7.40
2023-11-10T01:29:31.237Z,7.77
2023-11-10T01:34:33.063Z,8.07
2023-11-10T01:39:35.199Z,8.70
2023-11-10T01:44:40.893Z,8.70
2023-11-10T01:49:43.200Z,9.30
2023-11-10T01:54:45.003Z,8.63
2023-11-10T01:59:48.499Z,9.27
2023-11-10T02:04:52.501Z,9.50
2023-11-10T02:09:54.500Z,8.20
2023-11-10T02:14:56.345Z,8.87
2023-11-10T02:19:58.374Z,8.47
2023-11-10T02:25:04.038Z,8.20
2023-11-10T02:30:06.581Z,7.77
2023-11-10T02:35:09.637Z,6.97
2023-11-10T02:40:11.796Z,7.03
2023-11-10T02:45:14.439Z,6.87
2023-11-10T02:50:19.110Z,6.10
2023-11-10T02:55:24.345Z,6.27
2023-11-10T03:00:26.668Z,6.20
2023-11-10T03:05:28.469Z,5.97
2023-11-10T03:10:32.827Z,6.13
2023-11-10T03:15:36.848Z,5.83
2023-11-10T03:20:39.553Z,6.10
2023-11-10T03:25:41.307Z,5.70
2023-11-10T03:30:43.449Z,5.80
2023-11-10T03:35:47.418Z,5.03
2023-11-10T03:40:51.636Z,5.17
2023-11-10T03:45:53.899Z,5.00
2023-11-10T03:50:56.832Z,3.93
2023-11-10T03:55:58.759Z,4.00
2023-11-10T04:01:02.274Z,4.10
2023-11-10T04:06:04.194Z,4.40
2023-11-10T04:11:08.266Z,4.40
2023-11-10T04:16:22.819Z,4.20
2023-11-10T04:21:27.349Z,3.77
2023-11-10T04:26:29.331Z,3.50
2023-11-10T04:31:32.661Z,3.30
2023-11-10T04:36:37.179Z,3.77
2023-11-10T04:41:40.122Z,3.20
2023-11-10T04:46:45.408Z,3.37
2023-11-10T04:51:47.377Z,3.53
2023-11-10T04:56:49.175Z,3.63
2023-11-10T05:01:52.952Z,3.20
2023-11-10T05:06:54.800Z,3.57
2023-11-10T05:11:56.605Z,2.80
2023-11-10T05:17:01.558Z,3.43
2023-11-10T05:22:03.631Z,3.17
2023-11-10T05:27:06.578Z,3.53
2023-11-10T05:32:11.245Z,3.43
2023-11-10T05:37:12.977Z,3.47
2023-11-10T05:42:16.993Z,3.50
2023-11-10T05:47:21.708Z,3.70
2023-11-10T05:52:23.594Z,3.40
2023-11-10T05:57:26.613Z,3.50
2023-11-10T06:02:30.162Z,3.70
2023-11-10T06:07:35.189Z,3.17
2023-11-10T06:12:39.249Z,2.90
2023-11-10T06:17:41.136Z,3.50
2023-11-10T06:22:43.094Z,3.27
2023-11-10T06:27:45.366Z,3.57
2023-11-10T06:32:50.610Z,3.83
2023-11-10T06:38:02.786Z,3.73
2023-11-10T06:43:04.896Z,4.03
2023-11-10T06:48:09.453Z,3.90
2023-11-10T06:53:11.292Z,3.73
2023-11-10T06:58:17.213Z,4.40
2023-11-10T07:03:21.058Z,5.10
2023-11-10T07:08:25.990Z,4.80
2023-11-10T07:13:28.112Z,6.03
2023-11-10T07:18:32.383Z,5.60
2023-11-10T07:23:34.872Z,5.70
2023-11-10T07:28:38.949Z,5.17
2023-11-10T07:33:43.312Z,4.70
2023-11-10T07:38:47.651Z,5.30
2023-11-10T07:43:49.609Z,5.70
2023-11-10T07:48:54.575Z,4.90
2023-11-10T07:53:56.524Z,5.33
2023-11-10T07:59:00.898Z,4.80
2023-11-10T08:04:06.387Z,4.87
2023-11-10T08:09:08.271Z,5.10
2023-11-10T08:14:12.464Z,4.20
2023-11-10T08:19:14.336Z,4.57
2023-11-10T08:24:17.114Z,4.27
2023-11-10T08:29:18.919Z,4.13
2023-11-10T08:34:22.588Z,4.47
2023-11-10T08:39:24.573Z,3.80
2023-11-10T08:44:28.093Z,3.30
2023-11-10T08:49:30.112Z,4.10
2023-11-10T08:54:34.966Z,3.77
2023-11-10T08:59:36.925Z,4.23
2023-11-10T09:04:38.917Z,3.63
2023-11-10T09:09:42.355Z,3.67
2023-11-10T09:14:44.228Z,3.70
2023-11-10T09:19:46.578Z,3.80
2023-11-10T09:24:49.588Z,3.20
2023-11-10T09:29:51.420Z,3.70
2023-11-10T09:34:54.326Z,3.70
2023-11-10T09:39:58.986Z,3.47
2023-11-10T09:45:03.116Z,3.30
2023-11-10T09:50:08.445Z,3.60
2023-11-10T09:55:11.353Z,3.37
2023-11-10T10:00:14.589Z,3.30
2023-11-10T10:05:16.815Z,3.00
2023-11-10T10:10:20.435Z,2.87
2023-11-10T10:15:27.456Z,3.00
2023-11-10T10:20:32.197Z,2.90
2023-11-10T10:25:34.804Z,3.17
2023-11-10T10:30:42.656Z,3.03
2023-11-10T10:35:48.335Z,2.93
2023-11-10T10:40:50.751Z,2.80
2023-11-10T10:45:56.755Z,2.40
2023-11-10T10:51:00.307Z,2.20
2023-11-10T10:56:03.110Z,2.22
2023-11-10T11:01:09.967Z,3.10
2023-11-10T11:06:23.093Z,3.20
2023-11-10T11:12:00.200Z,2.73
2023-11-10T11:17:14.035Z,2.53
2023-11-10T11:22:15.953Z,2.77
2023-11-10T11:27:25.596Z,2.47
2023-11-10T11:32:31.888Z,2.43
2023-11-10T11:37:33.923Z,2.00
2023-11-10T11:42:41.849Z,2.00
2023-11-10T11:47:45.213Z,1.90
2023-11-10T11:52:47.600Z,2.00
2023-11-10T11:57:51.474Z,2.15
2023-11-10T12:02:59.612Z,2.65
2023-11-10T12:08:02.286Z,1.97
2023-11-10T12:13:09.325Z,2.20
2023-11-10T12:18:12.685Z,1.73
2023-11-10T12:23:15.819Z,2.22
2023-11-10T12:28:17.755Z,1.92
2023-11-10T12:33:19.628Z,2.08
2023-11-10T12:38:24.257Z,1.80
2023-11-10T12:43:28.799Z,1.42
2023-11-10T12:48:34.351Z,1.67
2023-11-10T12:53:39.888Z,2.03
2023-11-10T12:58:44.090Z,1.90
2023-11-10T13:03:46.231Z,2.00
2023-11-10T13:08:50.354Z,1.90
2023-11-10T13:13:53.870Z,1.60
2023-11-10T13:18:57.347Z,1.73
2023-11-10T13:24:01.892Z,1.70
2023-11-10T13:29:06.457Z,1.60
2023-11-10T13:34:10.811Z,1.50
2023-11-10T13:39:15.157Z,1.63
2023-11-10T13:44:19.342Z,1.60
2023-11-10T13:49:21.251Z,1.63
2023-11-10T13:54:24.749Z,1.60
2023-11-10T13:59:28.773Z,2.07
2023-11-10T14:04:30.651Z,2.23
2023-11-10T14:09:35.135Z,6.40
2023-11-10T14:14:37.507Z,3.17
2023-11-10T14:19:39.538Z,3.20
2023-11-10T14:24:41.761Z,2.60
2023-11-10T14:29:43.773Z,2.70
2023-11-10T14:34:49.103Z,2.60
2023-11-10T14:39:51.772Z,2.40
2023-11-10T14:44:57.832Z,2.50
2023-11-10T14:50:02.578Z,2.53
2023-11-10T14:55:07.398Z,2.50
2023-11-10T15:00:13.774Z,2.50
2023-11-10T15:05:20.360Z,2.30
2023-11-10T15:10:22.186Z,3.40
2023-11-10T15:15:24.443Z,3.20
2023-11-10T15:20:29.356Z,3.20
2023-11-10T15:25:31.286Z,3.27
2023-11-10T15:30:34.432Z,3.80
2023-11-10T15:35:51.636Z,4.13
2023-11-10T15:41:01.463Z,5.17
2023-11-10T15:46:04.653Z,5.53
2023-11-10T15:51:06.648Z,5.50
2023-11-10T15:56:08.572Z,6.50
2023-11-10T16:01:11.640Z,9.03
2023-11-10T16:06:13.752Z,9.57
2023-11-10T16:11:15.599Z,10.77
2023-11-10T16:16:18.493Z,10.83
2023-11-10T16:21:21.948Z,9.17
2023-11-10T16:26:27.062Z,9.00
2023-11-10T16:31:29.016Z,10.57
2023-11-10T16:36:31.426Z,11.47
2023-11-10T16:41:36.300Z,10.33
2023-11-10T16:46:39.360Z,8.80
2023-11-10T16:51:42.361Z,9.13
2023-11-10T16:56:44.687Z,8.27
2023-11-10T17:01:46.616Z,7.57
2023-11-10T17:06:48.582Z,7.90
2023-11-10T17:11:52.863Z,9.20
2023-11-10T17:16:57.069Z,8.90
2023-11-10T17:22:02.194Z,8.83
2023-11-10T17:27:04.252Z,7.53
2023-11-10T17:32:07.164Z,6.53
2023-11-10T17:37:12.821Z,8.32
2023-11-10T17:42:14.770Z,7.60
2023-11-10T17:47:17.949Z,6.63
2023-11-10T17:52:22.450Z,6.87
2023-11-10T17:57:27.240Z,7.43
2023-11-10T18:02:30.186Z,7.33
2023-11-10T18:07:31.997Z,7.70
2023-11-10T18:12:33.770Z,8.30
2023-11-10T18:17:37.137Z,6.90
2023-11-10T18:22:40.135Z,9.50
2023-11-10T18:27:45.502Z,9.30
2023-11-10T18:33:14.146Z,8.90
2023-11-10T18:38:19.230Z,10.50
2023-11-10T18:43:27.880Z,9.63
2023-11-10T18:48:32.860Z,11.00
2023-11-10T18:53:37.828Z,10.87
2023-11-10T18:58:39.905Z,10.40
2023-11-10T19:03:41.789Z,11.20
2023-11-10T19:08:59.060Z,13.70
2023-11-10T19:14:01.017Z,13.57
2023-11-10T19:19:06.945Z,11.33
2023-11-10T19:24:12.772Z,11.60
2023-11-10T19:29:17.399Z,12.53
2023-11-10T19:34:19.286Z,12.57
2023-11-10T19:39:25.370Z,12.83
2023-11-10T19:44:27.242Z,13.47
2023-11-10T19:49:30.054Z,13.57
2023-11-10T20:05:14.256Z,14.73
2023-11-10T20:10:16.386Z,14.97
2023-11-10T20:15:18.866Z,16.67
2023-11-10T20:20:22.929Z,25.63
2023-11-10T20:25:25.436Z,17.10
2023-11-10T20:30:29.395Z,18.87
2023-11-10T20:35:37.226Z,17.37
2023-11-10T20:40:44.020Z,17.63
2023-11-10T20:45:46.020Z,17.70
2023-11-10T20:50:47.913Z,18.67
2023-11-10T20:55:51.647Z,18.57
2023-11-10T21:00:53.505Z,18.67
2023-11-10T21:05:55.304Z,18.17
2023-11-10T21:10:57.396Z,19.47
2023-11-10T21:16:04.687Z,19.83
2023-11-10T21:21:06.808Z,20.83
2023-11-10T21:26:10.774Z,22.27
2023-11-10T21:31:17.630Z,23.43
2023-11-10T21:36:22.886Z,26.00
2023-11-10T21:41:28.300Z,24.97
2023-11-10T21:46:33.838Z,26.07
2023-11-10T21:51:40.324Z,26.07
2023-11-10T21:56:42.222Z,30.37
2023-11-10T22:01:46.544Z,25.00
2023-11-10T22:06:48.522Z,27.87
2023-11-10T22:11:50.331Z,27.50
2023-11-10T22:16:56.448Z,28.43
2023-11-10T22:22:04.669Z,30.03
2023-11-10T22:27:06.573Z,30.43
2023-11-10T22:32:09.668Z,30.43
2023-11-10T22:37:11.664Z,27.70
2023-11-10T22:42:16.791Z,31.07
2023-11-10T22:47:18.731Z,29.77
2023-11-10T22:52:20.552Z,30.00
2023-11-10T22:57:24.558Z,31.57
2023-11-10T23:02:32.600Z,31.43
2023-11-10T23:07:34.571Z,33.83
2023-11-10T23:12:43.848Z,35.27
2023-11-10T23:17:45.812Z,34.23
2023-11-10T23:22:50.530Z,34.50
2023-11-10T23:27:52.425Z,34.83
2023-11-10T23:32:54.563Z,31.50
2023-11-10T23:37:56.649Z,35.10
2023-11-10T23:43:00.744Z,34.97
2023-11-10T23:48:07.074Z,34.23
2023-11-10T23:53:09.702Z,36.87
2023-11-10T23:58:11.645Z,34.40
